Time;durP1;ratioP1;P1;durP2;ratioP2;P2;SDS_P1;SDS_P2;PMS_P1;PMS_P2;Temp;Humidity;BMP_temperature;BMP_pressure;BME280_temperature;BME280_humidity;BME280_pressure;Samples;Min_cycle;Max_cycle;Signal;HPM_P1;HPM_P2
2023/04/27 00:00:59;;;;;;;;;;;;;;;;;;6160692;23;19920;-78
2023/04/27 00:03:29;;;;;;;;;;;;;;;;;;6135731;23;19920;-79
2023/04/27 00:05:56;;;;;;;;;;;;;;;;;;6187125;23;20268;-80
2023/04/27 00:08:25;;;;;;;;;;;;;;;;;;6160964;23;19927;-79
2023/04/27 00:10:52;;;;;;;;;;;;;;;;;;6161574;23;19920;-79
2023/04/27 00:13:20;;;;;;;;;;;;;;;;;;6159787;23;19920;-79
2023/04/27 00:15:49;;;;;;;;;;;;;;;;;;6160276;23;19920;-79
2023/04/27 00:18:18;;;;;;;;;;;;;;;;;;6159977;23;19927;-79
2023/04/27 00:20:46;;;;;;;;;;;;;;;;;;6136174;23;19926;-79
2023/04/27 00:23:13;;;;;;;;;;;;;;;;;;6135275;23;19921;-79
2023/04/27 00:25:40;;;;;;;;;;;;;;;;;;6160955;23;19921;-79
2023/04/27 00:28:08;;;;;;;;;;;;;;;;;;6135255;23;19924;-79
2023/04/27 00:30:37;;;;;;;;;;;;;;;;;;6159792;23;19921;-79
2023/04/27 00:33:09;;;;;;;;;;;;;;;;;;6160315;23;19924;-79
2023/04/27 00:35:38;;;;;;;;;;;;;;;;;;6136416;23;19921;-79
2023/04/27 00:38:09;;;;;;;;;;;;;;;;;;6159403;23;19920;-79
2023/04/27 00:40:39;;;;;;;;;;;;;;;;;;6135892;23;19920;-79
2023/04/27 00:43:06;;;;;;;;;;;;;;;;;;6135941;23;19931;-79
2023/04/27 00:45:36;;;;;;;;;;;;;;;;;;6134442;23;20257;-79
2023/04/27 00:48:05;;;;;;;;;;;;;;;;;;6162899;23;19920;-80
2023/04/27 00:50:32;;;;;;;;;;;;;;;;;;6088702;23;1753030;-80
2023/04/27 00:53:02;;;;;;;;;;;;;;;;;;6165579;23;19931;-79
2023/04/27 00:55:32;;;;;;;;;;;;;;;;;;6165542;23;19920;-81
2023/04/27 00:57:59;;;;;;;;;;;;;;;;;;6166458;23;19921;-79
2023/04/27 01:00:26;;;;;;;;;;;;;;;;;;6139692;23;19926;-79
2023/04/27 01:02:54;;;;;;;;;;;;;;;;;;6170305;23;19920;-79
2023/04/27 01:05:24;;;;;;;;;;;;;;;;;;6175482;23;19920;-79
2023/04/27 01:07:51;;;;;;;;;;;;;;;;;;6151898;23;20550;-79
2023/04/27 01:10:20;;;;;;;;;;;;;;;;;;6176222;23;19926;-79
2023/04/27 01:12:53;;;;;;;;;;;;;;;;;;6186965;23;19924;-79
2023/04/27 01:15:20;;;;;;;;;;;;;;;;;;6176329;23;19920;-79
2023/04/27 01:17:57;;;;;;;;;;;;;;;;;;6176282;23;19922;-79
2023/04/27 01:20:24;;;;;;;;;;;;;;;;;;6175800;23;19920;-79
2023/04/27 01:22:51;;;;;;;;;;;;;;;;;;6202627;23;19926;-80
2023/04/27 01:25:19;;;;;;;;;;;;;;;;;;6151087;23;19927;-80
2023/04/27 01:27:49;;;;;;;;;;;;;;;;;;6173914;23;19931;-80
2023/04/27 01:30:16;;;;;;;;;;;;;;;;;;6175878;23;19927;-80
2023/04/27 01:32:43;;;;;;;;;;;;;;;;;;6151384;23;19929;-80
2023/04/27 01:35:12;;;;;;;;;;;;;;;;;;6176673;23;19927;-80
2023/04/27 01:37:39;;;;;;;;;;;;;;;;;;6175234;23;19935;-80
2023/04/27 01:40:07;;;;;;;;;;;;;;;;;;6150241;23;19921;-80
2023/04/27 01:42:37;;;;;;;;;;;;;;;;;;6176440;23;19927;-80
2023/04/27 01:45:07;;;;;;;;;;;;;;;;;;6186166;23;19931;-80
2023/04/27 01:47:34;;;;;;;;;;;;;;;;;;6150339;23;19929;-80
2023/04/27 01:50:01;;;;;;;;;;;;;;;;;;6176911;23;19911;-80
2023/04/27 01:52:28;;;;;;;;;;;;;;;;;;6212479;23;19920;-80
2023/04/27 01:55:16;;;;;;;;;;;;;;;;;;6188870;23;19926;-80
2023/04/27 01:58:05;;;;;;;;;;;;;;;;;;6188856;23;19930;-80
2023/04/27 02:00:51;;;;;;;;;;;;;;;;;;6185829;23;19927;-79
2023/04/27 02:03:18;;;;;;;;;;;;;;;;;;6165754;23;19920;-79
2023/04/27 02:05:53;;;;;;;;;;;;;;;;;;6167219;23;19931;-79
2023/04/27 02:08:20;;;;;;;;;;;;;;;;;;6166860;23;19920;-79
2023/04/27 02:10:47;;;;;;;;;;;;;;;;;;6167611;23;19920;-79
2023/04/27 02:13:18;;;;;;;;;;;;;;;;;;6167739;23;19927;-79
2023/04/27 02:15:46;;;;;;;;;;;;;;;;;;6142620;23;19920;-79
2023/04/27 02:18:32;;;;;;;;;;;;;;;;;;6180292;23;19926;-80
2023/04/27 02:21:21;;;;;;;;;;;;;;;;;;6182636;23;19927;-80
2023/04/27 02:23:50;;;;;;;;;;;;;;;;;;6143355;23;19926;-80
2023/04/27 02:26:21;;;;;;;;;;;;;;;;;;6193597;23;19924;-79
2023/04/27 03:19:57;;;;;;;;;;;;;;;;;;5885119;24;19936;-80
2023/04/27 03:22:24;;;;;;;;;;;;;;;;;;5884339;24;19923;-79
2023/04/27 03:24:51;;;;;;;;;;;;;;;;;;5876713;24;20328;-79
2023/04/27 03:27:18;;;;;;;;;;;;;;;;;;5879488;24;19928;-79
2023/04/27 03:29:51;;;;;;;;;;;;;;;;;;5910876;24;20305;-79
2023/04/27 03:32:37;;;;;;;;;;;;;;;;;;5903405;24;19927;-80
2023/04/27 03:38:28;;;;;;;;;;;;;;;;;;5877281;24;20107;-79
2023/04/27 03:47:43;;;;;;;;;;;;;;;;;;5883358;24;19931;-79
2023/04/27 03:50:47;;;;;;;;;;;;;;;;;;5892538;24;19954;-79
2023/04/27 03:59:06;;;;;;;;;;;;;;;;;;5881469;24;20416;-80
2023/04/27 04:02:10;;;;;;;;;;;;;;;;;;5910279;24;19924;-80
2023/04/27 04:07:45;;;;;;;;;;;;;;;;;;6035887;23;19914;-80
2023/04/27 04:10:50;;;;;;;;;;;;;;;;;;6054115;23;19922;-80
2023/04/27 04:16:08;;;;;;;;;;;;;;;;;;6053805;23;19922;-80
2023/04/27 04:28:10;;;;;;;;;;;;;;;;;;6050791;23;19921;-80
2023/04/27 04:31:02;;;;;;;;;;;;;;;;;;6048901;23;19922;-80
2023/04/27 04:36:53;;;;;;;;;;;;;;;;;;6075402;23;19926;-80
2023/04/27 04:42:47;;;;;;;;;;;;;;;;;;6062270;23;19964;-80
2023/04/27 04:45:36;;;;;;;;;;;;;;;;;;6062388;23;19922;-80
2023/04/27 04:48:03;;;;;;;;;;;;;;;;;;6076704;23;19930;-80
2023/04/27 04:53:56;;;;;;;;;;;;;;;;;;6050871;23;19926;-80
2023/04/27 04:56:26;;;;;;;;;;;;;;;;;;6028318;23;19922;-80
2023/04/27 04:59:11;;;;;;;;;;;;;;;;;;6052787;23;19928;-80
2023/04/27 05:02:15;;;;;;;;;;;;;;;;;;6050889;23;19932;-81
2023/04/27 05:10:50;;;;;;;;;;;;;;;;;;6051789;23;19921;-78
2023/04/27 05:13:37;;;;;;;;;;;;;;;;;;6089345;23;19922;-79
2023/04/27 05:32:24;;;;;;;;;;;;;;;;;;6084267;23;19920;-81
2023/04/27 05:37:55;;;;;;;;;;;;;;;;;;6089770;23;19929;-81
2023/04/27 05:40:59;;;;;;;;;;;;;;;;;;6094343;23;19928;-80
2023/04/27 05:43:45;;;;;;;;;;;;;;;;;;6046993;23;19928;-79
2023/04/27 05:46:33;;;;;;;;;;;;;;;;;;6082916;23;19925;-79
2023/04/27 05:52:47;;;;;;;;;;;;;;;;;;6075821;23;19920;-79
2023/04/27 06:05:05;;;;;;;;;;;;;;;;;;6089442;23;20355;-80
2023/04/27 06:07:36;;;;;;;;;;;;;;;;;;6137135;23;19935;-80
2023/04/27 06:13:45;;;;;;;;;;;;;;;;;;6153033;23;20276;-79
2023/04/27 07:30:13;;;;;;;;;;;;;;;;;;6231936;23;20274;-82
2023/04/27 07:35:30;;;;;;;;;;;;;;;;;;6167593;23;19923;-83
2023/04/27 07:38:01;;;;;;;;;;;;;;;;;;6164550;23;20240;-84
2023/04/27 08:00:08;;;;;;;;;;;;;;;;;;6225954;23;20244;-83
2023/04/27 08:02:58;;;;;;;;;;;;;;;;;;6190844;23;20260;-83
2023/04/27 10:08:13;;;;;;;;;;;;;;;;;;6222547;22;20336;-80
2023/04/27 10:24:47;;;;;;;;;;;;;;;;;;6222002;22;19930;-81
2023/04/27 10:31:03;;;;;;;;;;;;;;;;;;6231993;23;19912;-80
2023/04/27 10:47:24;;;;;;;;;;;;;;;;;;;;;
2023/04/27 10:53:37;;;;;;;;;;;;;;;;;;6185253;23;19919;-81
2023/04/27 11:27:24;;;;;;;;;;;;;;;;;;6223826;23;19920;-80
2023/04/27 17:00:36;;;;;;;;;;;;;;;;;;6207958;23;19920;-80
2023/04/27 17:19:23;;;;;;;;;;;;;;;;;;6197919;23;19922;-79
2023/04/27 17:31:49;;;;;;;;;;;;;;;;;;6235275;23;19922;-80
2023/04/27 17:50:29;;;;;;;;;;;;;;;;;;;;;
2023/04/27 18:02:10;;;;;;;;;;;;;;;;;;6233828;23;19920;-81
2023/04/27 18:05:25;;;;;;;;;;;;;;;;;;6207215;23;20241;-80
2023/04/27 18:12:00;;;;;;;;;;;;;;;;;;6244348;23;19926;-80
2023/04/27 18:14:47;;;;;;;;;;;;;;;;;;6243648;23;19927;-80
2023/04/27 18:17:37;;;;;;;;;;;;;;;;;;6206133;23;19920;-80
2023/04/27 18:20:26;;;;;;;;;;;;;;;;;;6202874;23;19926;-80
2023/04/27 18:29:12;;;;;;;;;;;;;;;;;;6225993;23;19920;-80
2023/04/27 18:37:48;;;;;;;;;;;;;;;;;;6220409;23;20348;-79
2023/04/27 18:40:34;;;;;;;;;;;;;;;;;;6198152;23;19920;-79
2023/04/27 18:43:06;;;;;;;;;;;;;;;;;;6233952;23;19926;-79
2023/04/27 18:45:55;;;;;;;;;;;;;;;;;;6216223;23;19924;-79
2023/04/27 18:51:25;;;;;;;;;;;;;;;;;;6241728;23;19920;-79
2023/04/27 18:59:42;;;;;;;;;;;;;;;;;;6192040;23;19924;-79
2023/04/27 19:02:09;;;;;;;;;;;;;;;;;;6229590;23;19919;-79
2023/04/27 19:04:36;;;;;;;;;;;;;;;;;;6194287;23;19920;-79
2023/04/27 19:07:41;;;;;;;;;;;;;;;;;;6202858;23;19926;-79
2023/04/27 19:10:45;;;;;;;;;;;;;;;;;;6235417;23;19920;-79
2023/04/27 19:13:12;;;;;;;;;;;;;;;;;;6192092;23;20255;-79
2023/04/27 19:16:16;;;;;;;;;;;;;;;;;;6235067;23;19926;-79
2023/04/27 19:22:28;;;;;;;;;;;;;;;;;;6202190;23;19959;-79
2023/04/27 19:28:18;;;;;;;;;;;;;;;;;;6201845;23;19934;-79
2023/04/27 19:31:23;;;;;;;;;;;;;;;;;;6237962;23;19923;-79
2023/04/27 19:37:12;;;;;;;;;;;;;;;;;;6194285;23;19912;-80
2023/04/27 19:43:39;;;;;;;;;;;;;;;;;;6195021;23;19919;-80
2023/04/27 20:36:15;;;;;;;;;;;;;;;;;;6217658;23;19971;-80
2023/04/27 20:38:42;;;;;;;;;;;;;;;;;;6192438;23;19947;-80
2023/04/27 20:41:11;;;;;;;;;;;;;;;;;;6214847;23;19920;-79
2023/04/27 20:43:38;;;;;;;;;;;;;;;;;;6173570;23;20291;-79
2023/04/27 20:46:06;;;;;;;;;;;;;;;;;;6191285;23;20256;-79
2023/04/27 20:48:36;;;;;;;;;;;;;;;;;;6190448;23;19927;-79
2023/04/27 20:51:03;;;;;;;;;;;;;;;;;;6216472;23;19919;-79
2023/04/27 20:53:31;;;;;;;;;;;;;;;;;;6195647;23;19919;-79
2023/04/27 20:55:58;;;;;;;;;;;;;;;;;;6197416;23;19920;-79
2023/04/27 20:58:26;;;;;;;;;;;;;;;;;;6202046;23;19920;-79
2023/04/27 21:00:53;;;;;;;;;;;;;;;;;;6200828;23;19926;-79
2023/04/27 21:03:20;;;;;;;;;;;;;;;;;;6190976;23;19919;-78
2023/04/27 21:05:47;;;;;;;;;;;;;;;;;;6191836;23;19926;-78
2023/04/27 21:52:31;;;;;;;;;;;;;;;;;;6236658;23;19959;-79
2023/04/27 21:58:02;;;;;;;;;;;;;;;;;;6200916;23;19918;-79
2023/04/27 22:00:47;;;;;;;;;;;;;;;;;;6236622;23;20256;-79
2023/04/27 22:03:33;;;;;;;;;;;;;;;;;;6201357;23;19920;-79
2023/04/27 22:09:22;;;;;;;;;;;;;;;;;;6223453;23;19912;-79
2023/04/27 22:12:08;;;;;;;;;;;;;;;;;;6235039;23;19926;-79
2023/04/27 22:24:06;;;;;;;;;;;;;;;;;;6203242;23;19920;-79
2023/04/27 22:26:33;;;;;;;;;;;;;;;;;;6194449;23;19920;-78
2023/04/27 22:32:22;;;;;;;;;;;;;;;;;;6209930;23;19920;-78
2023/04/27 22:48:01;;;;;;;;;;;;;;;;;;6196561;23;19912;-79
2023/04/27 23:03:20;;;;;;;;;;;;;;;;;;6238841;23;19920;-80
2023/04/27 23:09:09;;;;;;;;;;;;;;;;;;6231011;23;20082;-80
2023/04/27 23:11:36;;;;;;;;;;;;;;;;;;6202834;23;19920;-80
2023/04/27 23:14:05;;;;;;;;;;;;;;;;;;6204429;23;19919;-80
2023/04/27 23:30:03;;;;;;;;;;;;;;;;;;6201987;23;19912;-80
2023/04/27 23:32:30;;;;;;;;;;;;;;;;;;6202728;23;19920;-80
2023/04/27 23:35:34;;;;;;;;;;;;;;;;;;6241257;23;19930;-80
2023/04/27 23:38:01;;;;;;;;;;;;;;;;;;6194816;23;19920;-78
